Terminal Aerodrome Forecast
Issued by NWS

Home | Current Version | Previous Version | Text Only | Print | Product List | Glossary On
Versions: 1 2 3 4 5 6 7 8 9 10 11 12 13 14 15 16 17 18 19 20 21 22 23 24
487
FTUS41 KOKX 122036 AAA
TAFGON
TAF AMD
KGON 122036Z 1221/1318 23007KT P6SM SCT120 BKN250
     FM130000 VRB04KT P6SM BKN060
     FM130900 29007KT P6SM SCT025 BKN040 PROB30 1309/1312 2SM -SN
      BKN025
     FM131200 21012G20KT P6SM SCT040 BKN080
     FM131400 31020G30KT P6SM SCT050=

USA.gov is the U.S. government's official web portal to all federal, state and local government web resources and services.